Time;durP1;ratioP1;P1;durP2;ratioP2;P2;SDS_P1;SDS_P2;PMS_P1;PMS_P2;Temp;Humidity;BMP_temperature;BMP_pressure;BME280_temperature;BME280_humidity;BME280_pressure;Samples;Min_cycle;Max_cycle;Signal;HPM_P1;HPM_P2
2024/03/18 00:02:39;;;;;;;7.50;5.07;;;;;;;;;;10459967;28;20541;-72
2024/03/18 00:07:42;;;;;;;8.18;5.43;;;;;;;;;;10453146;28;20049;-72
2024/03/18 00:12:47;;;;;;;8.60;5.78;;;;;;;;;;10434132;28;20410;-72
2024/03/18 00:17:49;;;;;;;8.10;5.63;;;;;;;;;;10428711;28;20052;-72
2024/03/18 00:22:51;;;;;;;7.20;5.50;;;;;;;;;;10445360;28;20044;-72
2024/03/18 00:27:55;;;;;;;7.07;5.07;;;;;;;;;;10456856;28;21057;-72
2024/03/18 00:32:57;;;;;;;7.10;5.03;;;;;;;;;;10459005;28;20040;-72
2024/03/18 00:38:00;;;;;;;6.90;4.45;;;;;;;;;;10446385;28;20052;-72
2024/03/18 00:43:04;;;;;;;4.57;3.50;;;;;;;;;;10452736;28;20049;-73
2024/03/18 00:48:08;;;;;;;5.50;3.80;;;;;;;;;;10436050;28;20103;-72
2024/03/18 00:53:10;;;;;;;4.97;3.97;;;;;;;;;;10461866;28;20485;-73
2024/03/18 00:58:14;;;;;;;4.93;3.90;;;;;;;;;;10454158;28;20449;-73
2024/03/18 01:03:16;;;;;;;4.53;3.15;;;;;;;;;;10464549;28;20639;-73
2024/03/18 01:08:19;;;;;;;3.78;2.70;;;;;;;;;;10458855;28;20044;-73
2024/03/18 01:13:31;;;;;;;3.70;2.63;;;;;;;;;;10453573;28;20044;-73
2024/03/18 01:18:33;;;;;;;3.88;2.83;;;;;;;;;;10460023;28;20044;-73
2024/03/18 01:23:35;;;;;;;2.65;2.20;;;;;;;;;;10439355;28;20048;-73
2024/03/18 01:28:39;;;;;;;3.15;2.40;;;;;;;;;;10454941;28;20071;-72
2024/03/18 01:33:42;;;;;;;3.08;2.08;;;;;;;;;;10456094;28;20041;-73
2024/03/18 01:38:44;;;;;;;3.05;2.13;;;;;;;;;;10457450;28;20056;-72
2024/03/18 01:43:48;;;;;;;2.85;1.98;;;;;;;;;;10453875;28;20082;-72
2024/03/18 01:48:51;;;;;;;3.33;1.67;;;;;;;;;;10453599;28;20333;-73
2024/03/18 01:53:53;;;;;;;2.72;1.85;;;;;;;;;;10464601;28;20490;-73
2024/03/18 01:59:04;;;;;;;2.10;1.50;;;;;;;;;;10445975;28;20041;-73
2024/03/18 02:04:09;;;;;;;1.70;1.52;;;;;;;;;;10461139;28;20044;-73
2024/03/18 02:09:12;;;;;;;3.00;1.30;;;;;;;;;;10457752;28;20489;-73
2024/03/18 02:14:17;;;;;;;1.73;1.27;;;;;;;;;;10460046;28;20032;-73
2024/03/18 02:19:19;;;;;;;3.10;1.70;;;;;;;;;;10449812;28;20045;-73
2024/03/18 02:24:23;;;;;;;2.25;1.40;;;;;;;;;;10450665;28;20036;-73
2024/03/18 02:29:25;;;;;;;1.52;1.20;;;;;;;;;;10455862;28;20052;-73
2024/03/18 02:34:28;;;;;;;1.90;1.25;;;;;;;;;;10457688;28;20370;-73
2024/03/18 02:39:33;;;;;;;1.92;1.15;;;;;;;;;;10439470;28;20478;-73
2024/03/18 02:44:36;;;;;;;1.02;0.90;;;;;;;;;;10456667;28;20037;-72
2024/03/18 02:49:39;;;;;;;1.13;1.00;;;;;;;;;;10452130;28;20037;-73
2024/03/18 02:54:43;;;;;;;1.02;0.95;;;;;;;;;;10449894;28;20052;-72
2024/03/18 02:59:45;;;;;;;1.85;1.13;;;;;;;;;;10454064;28;20154;-72
2024/03/18 03:04:48;;;;;;;1.50;1.20;;;;;;;;;;10454592;28;20552;-73
2024/03/18 03:09:52;;;;;;;2.22;1.42;;;;;;;;;;10460563;28;20040;-73
2024/03/18 03:14:54;;;;;;;1.20;1.10;;;;;;;;;;10459357;28;20036;-72
2024/03/18 03:19:56;;;;;;;2.25;1.20;;;;;;;;;;10442598;28;20048;-73
2024/03/18 03:25:00;;;;;;;1.15;1.05;;;;;;;;;;10447470;28;20044;-73
2024/03/18 03:30:02;;;;;;;1.10;1.00;;;;;;;;;;10449838;28;20055;-73
2024/03/18 03:35:05;;;;;;;2.65;1.25;;;;;;;;;;10458312;28;20461;-73
2024/03/18 03:40:11;;;;;;;0.80;0.70;;;;;;;;;;10456498;28;20043;-73
2024/03/18 03:45:13;;;;;;;2.00;1.10;;;;;;;;;;10444497;28;20040;-73
2024/03/18 03:50:15;;;;;;;1.35;0.77;;;;;;;;;;10465016;28;20394;-73
2024/03/18 03:55:19;;;;;;;1.10;0.88;;;;;;;;;;10449498;28;20039;-73
2024/03/18 04:00:23;;;;;;;2.33;0.90;;;;;;;;;;10456158;28;20048;-73
2024/03/18 04:05:26;;;;;;;0.85;0.85;;;;;;;;;;10453159;28;20040;-73
2024/03/18 04:10:30;;;;;;;0.85;0.80;;;;;;;;;;10456748;28;20177;-73
2024/03/18 04:15:33;;;;;;;1.10;0.90;;;;;;;;;;10453714;28;20045;-72
2024/03/18 04:20:36;;;;;;;1.95;1.05;;;;;;;;;;10452013;28;20060;-73
2024/03/18 04:25:39;;;;;;;1.90;1.17;;;;;;;;;;10454622;28;20041;-72
2024/03/18 04:30:42;;;;;;;1.20;1.10;;;;;;;;;;10465370;28;20484;-73
2024/03/18 04:35:45;;;;;;;2.13;1.88;;;;;;;;;;10461336;28;20067;-73
2024/03/18 04:40:49;;;;;;;2.28;2.08;;;;;;;;;;10462229;28;20501;-73
2024/03/18 04:45:51;;;;;;;4.00;1.92;;;;;;;;;;10460031;28;20060;-73
2024/03/18 04:50:54;;;;;;;2.10;1.42;;;;;;;;;;10458234;28;20063;-73
2024/03/18 04:55:58;;;;;;;2.20;1.73;;;;;;;;;;10461165;28;20556;-73
2024/03/18 05:01:01;;;;;;;1.98;1.83;;;;;;;;;;10464461;28;20036;-72
2024/03/18 05:06:04;;;;;;;2.25;1.70;;;;;;;;;;10468044;28;20064;-73
2024/03/18 05:11:07;;;;;;;2.40;1.95;;;;;;;;;;10465278;28;20037;-73
2024/03/18 05:16:10;;;;;;;2.83;2.00;;;;;;;;;;10467623;28;20041;-73
2024/03/18 05:21:12;;;;;;;2.03;1.85;;;;;;;;;;10460754;23;20037;-73
2024/03/18 05:26:16;;;;;;;1.73;1.63;;;;;;;;;;10460506;28;20036;-73
2024/03/18 05:31:18;;;;;;;2.78;1.88;;;;;;;;;;10442090;28;20063;-73
2024/03/18 05:36:21;;;;;;;2.15;1.92;;;;;;;;;;10438458;28;20044;-73
2024/03/18 05:41:24;;;;;;;2.15;1.60;;;;;;;;;;10432285;28;20403;-73
2024/03/18 05:46:27;;;;;;;2.40;1.65;;;;;;;;;;10432796;28;20045;-73
2024/03/18 05:51:29;;;;;;;1.85;1.67;;;;;;;;;;10425497;28;20048;-73
2024/03/18 05:56:33;;;;;;;1.70;1.60;;;;;;;;;;10417262;28;20128;-73
2024/03/18 06:01:35;;;;;;;3.42;1.77;;;;;;;;;;10420803;28;20791;-73
2024/03/18 06:06:38;;;;;;;2.47;1.67;;;;;;;;;;10423700;28;20040;-73
2024/03/18 06:11:41;;;;;;;1.80;1.50;;;;;;;;;;10422501;28;20063;-73
2024/03/18 06:16:44;;;;;;;1.92;1.73;;;;;;;;;;10428935;28;20041;-73
2024/03/18 06:21:48;;;;;;;1.55;1.45;;;;;;;;;;10421179;28;20044;-73
2024/03/18 06:26:52;;;;;;;1.80;1.70;;;;;;;;;;10441355;28;20036;-73
2024/03/18 06:31:54;;;;;;;2.50;1.90;;;;;;;;;;10420971;28;20041;-73
2024/03/18 06:36:57;;;;;;;2.60;1.83;;;;;;;;;;10423038;28;20120;-73
2024/03/18 06:42:00;;;;;;;2.25;1.65;;;;;;;;;;10415906;28;20056;-73
2024/03/18 06:47:03;;;;;;;2.28;1.70;;;;;;;;;;10420711;28;20525;-73
2024/03/18 06:52:06;;;;;;;1.83;1.58;;;;;;;;;;10414899;28;20049;-73
2024/03/18 06:57:10;;;;;;;1.90;1.58;;;;;;;;;;10419839;28;20057;-73
2024/03/18 07:02:12;;;;;;;1.80;1.52;;;;;;;;;;10420700;28;20052;-73
2024/03/18 07:07:15;;;;;;;2.05;1.85;;;;;;;;;;10428198;28;20040;-73
2024/03/18 07:12:19;;;;;;;2.25;1.75;;;;;;;;;;10430740;28;20506;-73
2024/03/18 07:17:21;;;;;;;2.22;1.98;;;;;;;;;;10422726;28;20713;-73
2024/03/18 07:22:25;;;;;;;2.60;2.08;;;;;;;;;;10433118;28;20044;-73
2024/03/18 07:27:28;;;;;;;1.88;1.75;;;;;;;;;;10429239;28;20087;-73
2024/03/18 07:32:31;;;;;;;1.80;1.70;;;;;;;;;;10431621;28;20044;-73
2024/03/18 07:37:34;;;;;;;1.85;1.75;;;;;;;;;;10428834;28;20126;-73
2024/03/18 07:42:37;;;;;;;2.05;1.77;;;;;;;;;;10427411;28;20114;-73
2024/03/18 07:47:40;;;;;;;1.90;1.75;;;;;;;;;;10419221;28;20044;-73
2024/03/18 07:52:42;;;;;;;2.05;1.80;;;;;;;;;;10419515;28;20623;-73
2024/03/18 07:57:46;;;;;;;2.80;2.10;;;;;;;;;;10406410;28;20060;-73
2024/03/18 08:02:49;;;;;;;2.60;2.05;;;;;;;;;;10423724;28;20052;-73
2024/03/18 08:07:52;;;;;;;5.10;2.80;;;;;;;;;;10424501;28;20574;-72
2024/03/18 08:12:56;;;;;;;3.85;1.90;;;;;;;;;;10439735;28;20406;-73
2024/03/18 08:17:58;;;;;;;2.50;2.30;;;;;;;;;;10431970;28;20465;-73
2024/03/18 08:23:01;;;;;;;2.58;2.17;;;;;;;;;;10429915;28;20537;-73
2024/03/18 08:28:05;;;;;;;2.88;2.03;;;;;;;;;;10423827;28;20037;-73
2024/03/18 08:33:08;;;;;;;3.22;2.00;;;;;;;;;;10423922;28;20067;-73
2024/03/18 08:38:10;;;;;;;4.22;2.40;;;;;;;;;;10410011;28;20134;-73
2024/03/18 08:43:14;;;;;;;3.28;2.15;;;;;;;;;;10429329;28;20678;-73
2024/03/18 08:48:16;;;;;;;2.58;2.05;;;;;;;;;;10426808;28;20402;-73
2024/03/18 08:53:19;;;;;;;4.10;2.42;;;;;;;;;;10426005;28;20575;-73
2024/03/18 08:58:22;;;;;;;3.03;2.38;;;;;;;;;;10422652;28;22024;-73
2024/03/18 09:03:25;;;;;;;2.92;2.38;;;;;;;;;;10427531;28;20059;-73
2024/03/18 09:08:27;;;;;;;4.88;2.58;;;;;;;;;;10424361;28;20048;-73
2024/03/18 09:13:31;;;;;;;3.70;2.10;;;;;;;;;;10424323;28;20383;-73
2024/03/18 09:18:33;;;;;;;6.82;2.53;;;;;;;;;;10421989;28;20418;-73
2024/03/18 09:23:37;;;;;;;3.85;2.03;;;;;;;;;;10424935;28;20474;-73
2024/03/18 09:28:41;;;;;;;4.45;2.10;;;;;;;;;;10425026;28;20041;-73
2024/03/18 09:33:43;;;;;;;2.22;1.67;;;;;;;;;;10427220;28;20052;-73
2024/03/18 09:38:45;;;;;;;2.47;1.30;;;;;;;;;;10424971;28;20053;-73
2024/03/18 09:43:49;;;;;;;1.20;1.10;;;;;;;;;;10437148;28;20486;-73
2024/03/18 09:48:52;;;;;;;2.65;1.50;;;;;;;;;;10431501;28;20053;-73
2024/03/18 09:53:58;;;;;;;3.38;1.85;;;;;;;;;;10416918;28;20052;-74
2024/03/18 09:59:02;;;;;;;1.42;1.20;;;;;;;;;;10434457;28;20045;-73
2024/03/18 10:04:04;;;;;;;1.67;1.20;;;;;;;;;;10436250;28;20044;-73
2024/03/18 10:09:07;;;;;;;3.88;1.50;;;;;;;;;;10423754;28;20063;-73
2024/03/18 10:14:11;;;;;;;2.20;1.63;;;;;;;;;;10426455;28;20055;-73
2024/03/18 10:19:16;;;;;;;3.78;2.53;;;;;;;;;;10423396;28;20809;-73
2024/03/18 10:24:18;;;;;;;4.07;2.58;;;;;;;;;;10419980;28;20439;-73
2024/03/18 10:29:22;;;;;;;3.13;2.55;;;;;;;;;;10418987;28;20387;-73
2024/03/18 10:34:25;;;;;;;2.20;1.98;;;;;;;;;;10430838;28;20453;-73
2024/03/18 10:39:40;;;;;;;2.92;2.33;;;;;;;;;;10435734;28;20036;-73
2024/03/18 10:44:58;;;;;;;2.00;1.70;;;;;;;;;;10430916;28;20483;-73
2024/03/18 10:50:02;;;;;;;3.00;1.65;;;;;;;;;;10431378;28;20043;-73
2024/03/18 10:55:06;;;;;;;2.13;1.50;;;;;;;;;;10418812;28;20405;-73
2024/03/18 11:00:13;;;;;;;1.23;1.13;;;;;;;;;;10421021;28;20052;-73
2024/03/18 11:05:22;;;;;;;2.17;1.40;;;;;;;;;;10400968;28;20045;-73
2024/03/18 11:10:24;;;;;;;1.88;1.20;;;;;;;;;;10419619;28;20066;-73
2024/03/18 11:15:28;;;;;;;1.98;1.58;;;;;;;;;;10427616;28;20544;-73
2024/03/18 11:20:31;;;;;;;2.13;1.63;;;;;;;;;;10434118;22;20045;-73
2024/03/18 11:25:37;;;;;;;2.88;1.85;;;;;;;;;;10412524;28;20045;-73
2024/03/18 11:30:44;;;;;;;2.25;1.67;;;;;;;;;;10413794;28;20759;-73
2024/03/18 11:35:47;;;;;;;2.58;1.85;;;;;;;;;;10415421;28;20029;-73
2024/03/18 11:40:49;;;;;;;3.33;1.50;;;;;;;;;;10418054;28;20414;-73
2024/03/18 11:45:53;;;;;;;1.63;1.30;;;;;;;;;;10419062;28;20045;-73
2024/03/18 11:50:56;;;;;;;1.92;1.48;;;;;;;;;;10427479;28;20098;-73
2024/03/18 11:55:59;;;;;;;1.63;1.27;;;;;;;;;;10428191;28;21147;-73
2024/03/18 12:01:03;;;;;;;2.25;1.25;;;;;;;;;;10403844;28;20083;-73
2024/03/18 12:06:05;;;;;;;1.60;1.30;;;;;;;;;;10421828;28;20036;-73
2024/03/18 12:11:08;;;;;;;0.95;0.90;;;;;;;;;;10417103;28;20041;-73
2024/03/18 12:16:14;;;;;;;3.42;1.90;;;;;;;;;;10400690;28;20049;-73
2024/03/18 12:21:17;;;;;;;1.30;1.00;;;;;;;;;;10424224;28;20052;-73
2024/03/18 12:31:41;;;;;;;2.47;1.23;;;;;;;;;;10420303;28;20137;-73
2024/03/18 12:36:47;;;;;;;2.53;0.88;;;;;;;;;;10405500;28;20040;-73
2024/03/18 12:41:53;;;;;;;1.30;0.80;;;;;;;;;;10422147;28;20052;-72
2024/03/18 12:46:56;;;;;;;;;;;;;;;;;;10434682;28;20041;-72
2024/03/18 12:51:58;;;;;;;1.40;0.70;;;;;;;;;;10430574;28;20078;-73
2024/03/18 12:57:01;;;;;;;1.02;0.50;;;;;;;;;;10434384;28;20514;-73
2024/03/18 13:02:05;;;;;;;1.20;0.60;;;;;;;;;;10432103;28;20411;-73
2024/03/18 13:07:09;;;;;;;1.35;0.40;;;;;;;;;;10425673;28;20036;-73
2024/03/18 13:12:12;;;;;;;1.08;0.75;;;;;;;;;;10427925;28;20098;-73
2024/03/18 13:17:20;;;;;;;0.47;0.40;;;;;;;;;;10426619;28;20128;-73
2024/03/18 13:22:23;;;;;;;0.68;0.57;;;;;;;;;;10418692;28;20087;-73
2024/03/18 13:27:26;;;;;;;2.65;0.80;;;;;;;;;;10429394;28;20045;-73
2024/03/18 13:32:29;;;;;;;1.70;0.60;;;;;;;;;;10426217;28;20040;-73
2024/03/18 13:37:35;;;;;;;1.98;1.10;;;;;;;;;;10422417;28;20044;-73
2024/03/18 13:42:37;;;;;;;1.08;0.95;;;;;;;;;;10424736;28;20494;-73
2024/03/18 13:47:43;;;;;;;0.80;0.63;;;;;;;;;;10425035;28;20054;-73
2024/03/18 13:52:45;;;;;;;1.00;0.90;;;;;;;;;;10424853;28;20239;-73
2024/03/18 13:57:49;;;;;;;1.00;0.90;;;;;;;;;;10424778;28;20056;-73
2024/03/18 14:02:53;;;;;;;1.25;0.77;;;;;;;;;;10426100;28;20457;-73
2024/03/18 14:07:56;;;;;;;1.48;0.93;;;;;;;;;;10427905;28;20052;-73
2024/03/18 14:12:59;;;;;;;0.95;0.50;;;;;;;;;;10425725;28;20411;-73
2024/03/18 14:18:02;;;;;;;0.77;0.50;;;;;;;;;;10425646;28;20062;-73
2024/03/18 14:23:06;;;;;;;1.10;0.90;;;;;;;;;;10422126;28;20036;-73
2024/03/18 14:28:09;;;;;;;2.75;1.40;;;;;;;;;;10411258;28;20498;-73
2024/03/18 14:33:13;;;;;;;1.30;0.80;;;;;;;;;;10419638;28;20037;-73
2024/03/18 14:38:15;;;;;;;0.63;0.50;;;;;;;;;;10416375;28;20375;-73
2024/03/18 14:43:17;;;;;;;0.75;0.70;;;;;;;;;;10427111;28;20037;-73
2024/03/18 14:48:23;;;;;;;1.23;0.70;;;;;;;;;;10423975;28;20033;-73
2024/03/18 14:53:26;;;;;;;0.85;0.70;;;;;;;;;;10426069;28;20076;-73
2024/03/18 14:58:28;;;;;;;1.00;0.73;;;;;;;;;;10422360;28;20052;-73
2024/03/18 15:03:32;;;;;;;2.50;0.77;;;;;;;;;;10422516;28;20056;-73
2024/03/18 15:08:35;;;;;;;1.15;0.57;;;;;;;;;;10414650;28;20041;-73
2024/03/18 15:13:45;;;;;;;1.60;0.80;;;;;;;;;;10404665;28;20064;-73
2024/03/18 15:18:50;;;;;;;0.40;0.40;;;;;;;;;;10422710;28;20033;-73
2024/03/18 15:24:13;;;;;;;0.43;0.40;;;;;;;;;;10421347;28;20102;-73
2024/03/18 15:29:15;;;;;;;0.98;0.73;;;;;;;;;;10421270;28;20037;-73
2024/03/18 15:34:19;;;;;;;1.02;0.70;;;;;;;;;;10428262;28;20048;-73
2024/03/18 15:39:24;;;;;;;3.03;1.00;;;;;;;;;;10436709;28;20186;-73
2024/03/18 15:44:26;;;;;;;1.10;0.95;;;;;;;;;;10422955;28;20048;-73
2024/03/18 15:49:32;;;;;;;3.33;0.68;;;;;;;;;;10423294;28;20037;-73
2024/03/18 15:54:34;;;;;;;0.82;0.70;;;;;;;;;;10421180;28;20040;-73
2024/03/18 15:59:38;;;;;;;1.05;0.70;;;;;;;;;;10422788;28;20033;-73
2024/03/18 16:04:42;;;;;;;2.20;0.82;;;;;;;;;;10419721;28;21858;-73
2024/03/18 16:09:44;;;;;;;0.70;0.60;;;;;;;;;;10418959;28;20095;-73
2024/03/18 16:14:47;;;;;;;2.75;1.17;;;;;;;;;;10416403;28;20123;-73
2024/03/18 16:19:50;;;;;;;1.67;1.25;;;;;;;;;;10425107;28;20043;-73
2024/03/18 16:24:53;;;;;;;3.85;1.20;;;;;;;;;;10426890;28;20386;-73
2024/03/18 16:29:55;;;;;;;1.25;0.75;;;;;;;;;;10428911;28;20574;-73
2024/03/18 16:34:59;;;;;;;1.30;0.65;;;;;;;;;;10424228;28;20053;-73
2024/03/18 16:40:05;;;;;;;1.23;0.60;;;;;;;;;;10423039;28;20045;-73
2024/03/18 16:45:08;;;;;;;;;;;;;;;;;;10443725;28;20486;-73
2024/03/18 16:50:12;;;;;;;1.65;0.80;;;;;;;;;;10425951;28;20422;-73
2024/03/18 16:55:16;;;;;;;1.77;0.80;;;;;;;;;;10424847;28;20064;-73
2024/03/18 17:00:19;;;;;;;1.10;0.70;;;;;;;;;;10427803;28;20107;-73
2024/03/18 17:05:23;;;;;;;0.85;0.70;;;;;;;;;;10420168;28;20320;-73
2024/03/18 17:10:26;;;;;;;0.88;0.52;;;;;;;;;;10420800;28;20525;-73
2024/03/18 17:15:29;;;;;;;0.82;0.45;;;;;;;;;;10413584;28;20055;-73
2024/03/18 17:20:33;;;;;;;0.52;0.40;;;;;;;;;;10418642;22;20053;-74
2024/03/18 17:25:36;;;;;;;1.92;0.50;;;;;;;;;;10421188;28;20076;-74
2024/03/18 17:30:38;;;;;;;0.50;0.50;;;;;;;;;;10398132;28;20053;-74
2024/03/18 17:35:42;;;;;;;1.45;0.50;;;;;;;;;;10385484;28;20491;-74
2024/03/18 17:40:46;;;;;;;1.25;0.52;;;;;;;;;;10377510;28;20050;-74
2024/03/18 17:46:36;;;;;;;0.98;0.60;;;;;;;;;;10365398;28;20183;-74
2024/03/18 17:59:11;;;;;;;0.85;0.50;;;;;;;;;;10197469;28;20050;-74
2024/03/18 18:04:15;;;;;;;1.58;0.77;;;;;;;;;;10318869;28;20052;-74
2024/03/18 18:09:27;;;;;;;0.93;0.73;;;;;;;;;;10390774;28;20571;-74
2024/03/18 18:14:36;;;;;;;1.05;0.90;;;;;;;;;;10385969;28;20052;-74
2024/03/18 18:19:40;;;;;;;1.45;1.02;;;;;;;;;;10392688;28;20033;-74
2024/03/18 18:24:47;;;;;;;1.63;1.20;;;;;;;;;;10373672;28;20399;-74
2024/03/18 18:29:57;;;;;;;1.25;1.10;;;;;;;;;;10382961;28;20152;-74
2024/03/18 18:35:01;;;;;;;1.40;1.20;;;;;;;;;;10386325;28;20129;-74
2024/03/18 18:40:06;;;;;;;1.92;1.50;;;;;;;;;;10382431;28;20416;-74
2024/03/18 18:45:08;;;;;;;8.73;4.60;;;;;;;;;;10388777;28;20042;-74
2024/03/18 18:50:13;;;;;;;10.02;5.25;;;;;;;;;;10385275;28;20518;-74
2024/03/18 18:55:15;;;;;;;4.78;3.22;;;;;;;;;;10381386;28;20056;-74
2024/03/18 19:00:18;;;;;;;2.60;1.90;;;;;;;;;;10381831;28;20038;-74
2024/03/18 19:05:22;;;;;;;3.22;2.00;;;;;;;;;;10382129;28;20512;-74
2024/03/18 19:10:24;;;;;;;2.70;1.52;;;;;;;;;;10381070;28;20050;-74
2024/03/18 19:15:27;;;;;;;1.80;1.40;;;;;;;;;;10381802;28;20041;-74
2024/03/18 19:20:30;;;;;;;1.58;1.27;;;;;;;;;;10387467;28;20447;-74
2024/03/18 19:25:34;;;;;;;1.30;1.02;;;;;;;;;;10382012;28;20049;-74
2024/03/18 19:30:37;;;;;;;1.45;1.00;;;;;;;;;;10364171;28;20398;-74
2024/03/18 19:35:43;;;;;;;3.25;1.50;;;;;;;;;;10390867;28;20040;-73
2024/03/18 19:40:45;;;;;;;2.17;1.23;;;;;;;;;;10386919;28;20045;-74
2024/03/18 19:45:48;;;;;;;1.38;1.20;;;;;;;;;;10378393;28;20041;-73
2024/03/18 19:50:53;;;;;;;2.05;1.50;;;;;;;;;;10400266;28;20041;-75
2024/03/18 19:55:56;;;;;;;2.95;1.83;;;;;;;;;;10381494;28;20041;-74
2024/03/18 20:00:58;;;;;;;4.82;2.63;;;;;;;;;;10380785;28;20037;-74
2024/03/18 20:06:02;;;;;;;4.25;2.90;;;;;;;;;;10378251;28;20546;-74
2024/03/18 20:11:05;;;;;;;3.42;2.47;;;;;;;;;;10382552;28;20042;-74
2024/03/18 20:16:10;;;;;;;3.83;2.55;;;;;;;;;;10380321;28;20046;-74
2024/03/18 20:21:13;;;;;;;2.45;2.05;;;;;;;;;;10383119;28;20095;-74
2024/03/18 20:26:16;;;;;;;3.22;1.98;;;;;;;;;;10375948;28;20045;-74
2024/03/18 20:31:18;;;;;;;2.90;1.92;;;;;;;;;;10367654;28;20045;-74
2024/03/18 20:36:22;;;;;;;2.08;1.77;;;;;;;;;;10362965;28;20049;-74
2024/03/18 20:41:27;;;;;;;2.78;1.73;;;;;;;;;;10369258;28;20045;-74
2024/03/18 20:46:33;;;;;;;3.25;2.20;;;;;;;;;;10371469;28;20029;-74
2024/03/18 20:51:39;;;;;;;2.20;1.73;;;;;;;;;;10378561;28;20107;-74
2024/03/18 20:56:42;;;;;;;3.47;1.67;;;;;;;;;;10384712;28;20049;-74
2024/03/18 21:01:47;;;;;;;2.88;1.75;;;;;;;;;;10378954;28;20095;-74
2024/03/18 21:06:53;;;;;;;2.80;1.90;;;;;;;;;;10390970;28;20495;-74
2024/03/18 21:11:55;;;;;;;6.50;3.42;;;;;;;;;;10387432;28;20037;-74
2024/03/18 21:16:57;;;;;;;6.95;3.50;;;;;;;;;;10392441;28;20049;-74
2024/03/18 21:22:01;;;;;;;3.60;2.40;;;;;;;;;;10383420;28;20507;-74
2024/03/18 21:27:04;;;;;;;3.05;1.77;;;;;;;;;;10384482;28;20041;-74
2024/03/18 21:32:09;;;;;;;2.75;1.65;;;;;;;;;;10382570;28;20049;-74
2024/03/18 21:37:14;;;;;;;1.75;1.45;;;;;;;;;;10383787;28;20052;-74
2024/03/18 21:42:18;;;;;;;2.33;1.83;;;;;;;;;;10383247;28;20049;-74
2024/03/18 21:47:23;;;;;;;2.95;2.40;;;;;;;;;;10365711;28;20052;-74
2024/03/18 21:52:27;;;;;;;4.10;2.80;;;;;;;;;;10374418;28;20435;-74
2024/03/18 21:57:29;;;;;;;2.38;2.13;;;;;;;;;;10383115;28;20462;-74
2024/03/18 22:02:34;;;;;;;2.95;1.75;;;;;;;;;;10388219;28;20117;-75
2024/03/18 22:07:38;;;;;;;2.50;2.00;;;;;;;;;;10388388;28;21242;-74
2024/03/18 22:12:40;;;;;;;3.08;2.17;;;;;;;;;;10375204;28;20050;-74
2024/03/18 22:17:43;;;;;;;2.92;2.10;;;;;;;;;;10392998;28;20052;-74
2024/03/18 22:22:47;;;;;;;2.92;2.05;;;;;;;;;;10388971;28;20095;-74
2024/03/18 22:27:49;;;;;;;3.65;1.90;;;;;;;;;;10388120;28;20044;-74
2024/03/18 22:32:51;;;;;;;2.88;2.25;;;;;;;;;;10390615;28;20064;-74
2024/03/18 22:37:55;;;;;;;3.08;2.50;;;;;;;;;;10389423;28;20049;-74
2024/03/18 22:42:58;;;;;;;3.33;2.60;;;;;;;;;;10396431;28;20436;-74
2024/03/18 22:48:02;;;;;;;3.60;2.42;;;;;;;;;;10394787;28;20045;-74
2024/03/18 22:53:06;;;;;;;5.13;2.22;;;;;;;;;;10374535;28;20064;-74
2024/03/18 22:58:09;;;;;;;4.32;2.78;;;;;;;;;;10408080;28;20045;-74
2024/03/18 23:03:13;;;;;;;3.22;2.55;;;;;;;;;;10386713;28;20083;-74
2024/03/18 23:08:16;;;;;;;6.00;3.05;;;;;;;;;;10386888;28;20033;-74
2024/03/18 23:13:19;;;;;;;6.57;3.10;;;;;;;;;;10398038;28;20597;-74
2024/03/18 23:18:21;;;;;;;5.40;2.83;;;;;;;;;;10420960;22;20071;-73
2024/03/18 23:23:25;;;;;;;3.13;2.13;;;;;;;;;;10543834;27;20139;-73
2024/03/18 23:28:28;;;;;;;4.82;3.05;;;;;;;;;;10547807;28;20031;-73
2024/03/18 23:33:30;;;;;;;5.28;2.60;;;;;;;;;;10553699;27;20035;-73
2024/03/18 23:38:34;;;;;;;4.75;2.83;;;;;;;;;;10550498;28;20027;-73
2024/03/18 23:43:36;;;;;;;4.85;2.90;;;;;;;;;;10551942;28;20496;-73
2024/03/18 23:48:39;;;;;;;3.28;2.28;;;;;;;;;;10545462;28;20043;-73
2024/03/18 23:53:44;;;;;;;3.63;2.30;;;;;;;;;;10551584;28;20085;-73
2024/03/18 23:58:48;;;;;;;3.40;1.70;;;;;;;;;;10547463;28;20041;-73
